sensor_id;sensor_type;location;lat;lon;timestamp;temperature;humidity
10270;DHT22;70826;50.930;5.334;2023-06-22T00:02:18;28.50;85.20
10270;DHT22;70826;50.930;5.334;2023-06-22T00:04:46;28.60;85.20
10270;DHT22;70826;50.930;5.334;2023-06-22T00:07:14;28.50;85.10
10270;DHT22;70826;50.930;5.334;2023-06-22T00:09:43;28.60;85.20
10270;DHT22;70826;50.930;5.334;2023-06-22T00:12:13;28.60;85.20
10270;DHT22;70826;50.930;5.334;2023-06-22T00:14:39;28.50;85.20
10270;DHT22;70826;50.930;5.334;2023-06-22T00:17:05;28.50;85.10
10270;DHT22;70826;50.930;5.334;2023-06-22T00:19:35;28.60;85.20
10270;DHT22;70826;50.930;5.334;2023-06-22T00:22:05;28.50;85.10
10270;DHT22;70826;50.930;5.334;2023-06-22T00:24:36;28.50;85.10
10270;DHT22;70826;50.930;5.334;2023-06-22T00:27:04;28.50;85.10
10270;DHT22;70826;50.930;5.334;2023-06-22T00:29:32;28.50;85.10
10270;DHT22;70826;50.930;5.334;2023-06-22T00:31:58;28.50;85.10
10270;DHT22;70826;50.930;5.334;2023-06-22T00:34:26;28.60;85.10
10270;DHT22;70826;50.930;5.334;2023-06-22T00:36:59;28.60;85.10
10270;DHT22;70826;50.930;5.334;2023-06-22T00:39:25;28.50;85.10
10270;DHT22;70826;50.930;5.334;2023-06-22T00:41:54;28.50;85.10
10270;DHT22;70826;50.930;5.334;2023-06-22T00:44:20;28.50;85.10
10270;DHT22;70826;50.930;5.334;2023-06-22T00:46:48;28.50;85.10
10270;DHT22;70826;50.930;5.334;2023-06-22T00:49:16;28.50;85.00
10270;DHT22;70826;50.930;5.334;2023-06-22T00:51:45;28.50;85.00
10270;DHT22;70826;50.930;5.334;2023-06-22T00:54:15;28.50;85.00
10270;DHT22;70826;50.930;5.334;2023-06-22T00:56:41;28.50;85.00
10270;DHT22;70826;50.930;5.334;2023-06-22T00:59:07;28.50;85.00
10270;DHT22;70826;50.930;5.334;2023-06-22T01:01:40;28.50;85.00
10270;DHT22;70826;50.930;5.334;2023-06-22T01:04:09;28.50;85.00
10270;DHT22;70826;50.930;5.334;2023-06-22T01:06:40;28.50;85.00
10270;DHT22;70826;50.930;5.334;2023-06-22T01:09:28;28.50;85.00
10270;DHT22;70826;50.930;5.334;2023-06-22T01:12:04;28.50;85.00
10270;DHT22;70826;50.930;5.334;2023-06-22T01:14:42;28.50;85.00
10270;DHT22;70826;50.930;5.334;2023-06-22T01:17:12;28.50;85.60
10270;DHT22;70826;50.930;5.334;2023-06-22T01:19:49;28.50;85.00
10270;DHT22;70826;50.930;5.334;2023-06-22T01:22:23;28.50;85.00
10270;DHT22;70826;50.930;5.334;2023-06-22T01:25:13;28.50;84.90
10270;DHT22;70826;50.930;5.334;2023-06-22T01:30:22;28.50;84.90
10270;DHT22;70826;50.930;5.334;2023-06-22T01:32:53;28.50;84.90
10270;DHT22;70826;50.930;5.334;2023-06-22T01:35:26;28.50;84.90
10270;DHT22;70826;50.930;5.334;2023-06-22T01:37:55;28.50;84.90
10270;DHT22;70826;50.930;5.334;2023-06-22T01:40:21;28.50;84.90
10270;DHT22;70826;50.930;5.334;2023-06-22T01:42:48;28.50;84.90
10270;DHT22;70826;50.930;5.334;2023-06-22T01:45:21;28.50;84.90
10270;DHT22;70826;50.930;5.334;2023-06-22T01:47:51;28.50;84.90
10270;DHT22;70826;50.930;5.334;2023-06-22T01:50:17;28.50;84.80
10270;DHT22;70826;50.930;5.334;2023-06-22T01:52:46;28.50;84.80
10270;DHT22;70826;50.930;5.334;2023-06-22T01:55:11;28.50;84.90
10270;DHT22;70826;50.930;5.334;2023-06-22T01:57:40;28.50;84.90
10270;DHT22;70826;50.930;5.334;2023-06-22T02:00:12;28.50;84.90
10270;DHT22;70826;50.930;5.334;2023-06-22T02:02:46;28.50;84.90
10270;DHT22;70826;50.930;5.334;2023-06-22T02:05:17;28.50;84.90
10270;DHT22;70826;50.930;5.334;2023-06-22T02:07:53;28.50;84.80
10270;DHT22;70826;50.930;5.334;2023-06-22T02:10:22;28.50;84.80
10270;DHT22;70826;50.930;5.334;2023-06-22T02:12:50;28.50;84.80
10270;DHT22;70826;50.930;5.334;2023-06-22T02:15:22;28.50;84.80
10270;DHT22;70826;50.930;5.334;2023-06-22T02:17:50;28.50;84.80
10270;DHT22;70826;50.930;5.334;2023-06-22T02:20:20;28.50;84.80
10270;DHT22;70826;50.930;5.334;2023-06-22T02:22:46;28.50;84.90
10270;DHT22;70826;50.930;5.334;2023-06-22T02:25:12;28.50;84.80
10270;DHT22;70826;50.930;5.334;2023-06-22T02:27:40;28.50;84.80
10270;DHT22;70826;50.930;5.334;2023-06-22T02:30:09;28.50;84.80
10270;DHT22;70826;50.930;5.334;2023-06-22T02:32:36;28.50;84.80
10270;DHT22;70826;50.930;5.334;2023-06-22T02:35:04;28.50;84.80
10270;DHT22;70826;50.930;5.334;2023-06-22T02:37:35;28.50;84.80
10270;DHT22;70826;50.930;5.334;2023-06-22T02:40:05;28.50;84.80
10270;DHT22;70826;50.930;5.334;2023-06-22T02:42:34;28.50;84.80
10270;DHT22;70826;50.930;5.334;2023-06-22T02:45:04;28.50;84.80
10270;DHT22;70826;50.930;5.334;2023-06-22T02:47:32;28.50;84.70
10270;DHT22;70826;50.930;5.334;2023-06-22T02:49:58;28.50;84.80
10270;DHT22;70826;50.930;5.334;2023-06-22T02:52:24;28.50;84.80
10270;DHT22;70826;50.930;5.334;2023-06-22T02:54:52;28.50;85.40
10270;DHT22;70826;50.930;5.334;2023-06-22T02:57:20;28.50;84.80
10270;DHT22;70826;50.930;5.334;2023-06-22T02:59:51;28.50;84.80
10270;DHT22;70826;50.930;5.334;2023-06-22T03:02:21;28.50;84.80
10270;DHT22;70826;50.930;5.334;2023-06-22T03:04:49;28.50;84.80
10270;DHT22;70826;50.930;5.334;2023-06-22T03:07:15;28.50;84.80
10270;DHT22;70826;50.930;5.334;2023-06-22T03:09:47;28.50;84.90
10270;DHT22;70826;50.930;5.334;2023-06-22T03:12:16;28.50;84.90
10270;DHT22;70826;50.930;5.334;2023-06-22T03:14:41;28.50;84.80
10270;DHT22;70826;50.930;5.334;2023-06-22T03:17:08;28.50;84.80
10270;DHT22;70826;50.930;5.334;2023-06-22T03:19:38;28.50;84.80
10270;DHT22;70826;50.930;5.334;2023-06-22T03:22:09;28.50;84.80
10270;DHT22;70826;50.930;5.334;2023-06-22T03:24:35;28.50;84.80
10270;DHT22;70826;50.930;5.334;2023-06-22T03:27:04;28.50;84.90
10270;DHT22;70826;50.930;5.334;2023-06-22T03:29:31;28.50;84.90
10270;DHT22;70826;50.930;5.334;2023-06-22T03:32:02;28.50;84.90
10270;DHT22;70826;50.930;5.334;2023-06-22T03:34:31;28.50;84.90
10270;DHT22;70826;50.930;5.334;2023-06-22T03:36:59;28.50;84.80
10270;DHT22;70826;50.930;5.334;2023-06-22T03:39:27;28.50;84.80
10270;DHT22;70826;50.930;5.334;2023-06-22T03:41:55;28.50;84.90
10270;DHT22;70826;50.930;5.334;2023-06-22T03:44:24;28.50;85.00
10270;DHT22;70826;50.930;5.334;2023-06-22T03:46:52;28.50;84.90
10270;DHT22;70826;50.930;5.334;2023-06-22T03:49:18;28.50;84.90
10270;DHT22;70826;50.930;5.334;2023-06-22T03:51:44;28.50;84.90
10270;DHT22;70826;50.930;5.334;2023-06-22T03:54:12;28.50;84.90
10270;DHT22;70826;50.930;5.334;2023-06-22T03:56:40;28.50;84.90
10270;DHT22;70826;50.930;5.334;2023-06-22T03:59:08;28.50;85.00
10270;DHT22;70826;50.930;5.334;2023-06-22T04:01:36;28.50;85.00
10270;DHT22;70826;50.930;5.334;2023-06-22T04:04:02;28.50;85.00
10270;DHT22;70826;50.930;5.334;2023-06-22T04:06:28;28.50;85.00
10270;DHT22;70826;50.930;5.334;2023-06-22T04:08:56;28.50;85.00
10270;DHT22;70826;50.930;5.334;2023-06-22T04:11:24;28.50;85.00
10270;DHT22;70826;50.930;5.334;2023-06-22T04:13:50;28.50;85.00
10270;DHT22;70826;50.930;5.334;2023-06-22T04:16:16;28.50;85.10
10270;DHT22;70826;50.930;5.334;2023-06-22T04:18:45;28.50;85.00
10270;DHT22;70826;50.930;5.334;2023-06-22T04:21:13;28.50;85.00
10270;DHT22;70826;50.930;5.334;2023-06-22T04:23:39;28.50;85.10
10270;DHT22;70826;50.930;5.334;2023-06-22T04:26:05;28.50;85.10
10270;DHT22;70826;50.930;5.334;2023-06-22T04:28:33;28.50;85.10
10270;DHT22;70826;50.930;5.334;2023-06-22T04:31:02;28.50;85.10
10270;DHT22;70826;50.930;5.334;2023-06-22T04:33:31;28.50;85.10
10270;DHT22;70826;50.930;5.334;2023-06-22T04:35:59;28.50;85.10
10270;DHT22;70826;50.930;5.334;2023-06-22T04:38:33;28.50;85.10
10270;DHT22;70826;50.930;5.334;2023-06-22T04:41:06;28.50;85.10
10270;DHT22;70826;50.930;5.334;2023-06-22T04:43:34;28.50;85.10
10270;DHT22;70826;50.930;5.334;2023-06-22T04:46:00;28.50;85.10
10270;DHT22;70826;50.930;5.334;2023-06-22T04:48:29;28.50;85.10
10270;DHT22;70826;50.930;5.334;2023-06-22T04:50:59;28.50;85.20
10270;DHT22;70826;50.930;5.334;2023-06-22T04:53:29;28.50;85.20
10270;DHT22;70826;50.930;5.334;2023-06-22T04:55:57;28.50;85.20
10270;DHT22;70826;50.930;5.334;2023-06-22T04:58:25;28.50;85.20
10270;DHT22;70826;50.930;5.334;2023-06-22T05:00:58;28.50;85.30
10270;DHT22;70826;50.930;5.334;2023-06-22T05:03:25;28.50;85.30
10270;DHT22;70826;50.930;5.334;2023-06-22T05:05:56;28.50;85.40
10270;DHT22;70826;50.930;5.334;2023-06-22T05:08:22;28.50;85.40
10270;DHT22;70826;50.930;5.334;2023-06-22T05:10:51;28.50;85.40
10270;DHT22;70826;50.930;5.334;2023-06-22T05:13:22;28.50;85.50
10270;DHT22;70826;50.930;5.334;2023-06-22T05:15:53;28.50;85.60
10270;DHT22;70826;50.930;5.334;2023-06-22T05:18:28;28.50;85.70
10270;DHT22;70826;50.930;5.334;2023-06-22T05:20:57;28.50;85.70
10270;DHT22;70826;50.930;5.334;2023-06-22T05:23:25;28.50;85.80
10270;DHT22;70826;50.930;5.334;2023-06-22T05:25:51;28.50;85.80
10270;DHT22;70826;50.930;5.334;2023-06-22T05:28:19;28.50;85.90
10270;DHT22;70826;50.930;5.334;2023-06-22T05:30:50;28.50;85.90
10270;DHT22;70826;50.930;5.334;2023-06-22T05:33:21;28.50;85.90
10270;DHT22;70826;50.930;5.334;2023-06-22T05:35:46;28.50;86.00
10270;DHT22;70826;50.930;5.334;2023-06-22T05:38:14;28.50;86.00
10270;DHT22;70826;50.930;5.334;2023-06-22T05:40:42;28.50;86.10
10270;DHT22;70826;50.930;5.334;2023-06-22T05:43:08;28.50;86.20
10270;DHT22;70826;50.930;5.334;2023-06-22T05:45:39;28.50;86.20
10270;DHT22;70826;50.930;5.334;2023-06-22T05:48:07;28.50;86.20
10270;DHT22;70826;50.930;5.334;2023-06-22T05:50:33;28.50;86.30
10270;DHT22;70826;50.930;5.334;2023-06-22T05:52:58;28.50;86.40
10270;DHT22;70826;50.930;5.334;2023-06-22T05:55:26;28.50;86.30
10270;DHT22;70826;50.930;5.334;2023-06-22T05:57:52;28.50;86.40
10270;DHT22;70826;50.930;5.334;2023-06-22T06:00:20;28.50;86.40
10270;DHT22;70826;50.930;5.334;2023-06-22T06:02:49;28.50;86.50
10270;DHT22;70826;50.930;5.334;2023-06-22T06:05:15;28.50;86.60
10270;DHT22;70826;50.930;5.334;2023-06-22T06:07:47;28.50;86.60
10270;DHT22;70826;50.930;5.334;2023-06-22T06:10:16;28.50;86.70
10270;DHT22;70826;50.930;5.334;2023-06-22T06:12:44;28.50;86.60
10270;DHT22;70826;50.930;5.334;2023-06-22T06:15:15;28.60;86.70
10270;DHT22;70826;50.930;5.334;2023-06-22T06:17:53;28.60;86.70
10270;DHT22;70826;50.930;5.334;2023-06-22T06:20:22;28.50;86.60
10270;DHT22;70826;50.930;5.334;2023-06-22T06:22:51;28.60;86.70
10270;DHT22;70826;50.930;5.334;2023-06-22T06:25:19;28.50;86.70
10270;DHT22;70826;50.930;5.334;2023-06-22T06:27:46;28.50;86.60
10270;DHT22;70826;50.930;5.334;2023-06-22T06:30:16;28.50;86.60
10270;DHT22;70826;50.930;5.334;2023-06-22T06:32:46;28.50;86.70
10270;DHT22;70826;50.930;5.334;2023-06-22T06:35:13;28.50;86.70
10270;DHT22;70826;50.930;5.334;2023-06-22T06:37:45;28.50;86.70
10270;DHT22;70826;50.930;5.334;2023-06-22T06:40:14;28.50;86.70
10270;DHT22;70826;50.930;5.334;2023-06-22T06:42:42;28.50;86.70
10270;DHT22;70826;50.930;5.334;2023-06-22T06:45:28;28.50;86.50
10270;DHT22;70826;50.930;5.334;2023-06-22T06:48:00;28.50;86.60
10270;DHT22;70826;50.930;5.334;2023-06-22T06:50:30;28.50;86.70
10270;DHT22;70826;50.930;5.334;2023-06-22T06:52:56;28.50;86.60
10270;DHT22;70826;50.930;5.334;2023-06-22T06:55:24;28.50;86.80
10270;DHT22;70826;50.930;5.334;2023-06-22T06:57:53;28.50;87.10
10270;DHT22;70826;50.930;5.334;2023-06-22T07:00:23;28.50;87.10
10270;DHT22;70826;50.930;5.334;2023-06-22T07:02:50;28.50;87.00
10270;DHT22;70826;50.930;5.334;2023-06-22T07:05:16;28.50;86.90
10270;DHT22;70826;50.930;5.334;2023-06-22T07:07:42;28.50;86.80
10270;DHT22;70826;50.930;5.334;2023-06-22T07:10:11;28.50;87.20
10270;DHT22;70826;50.930;5.334;2023-06-22T07:12:38;28.50;87.80
10270;DHT22;70826;50.930;5.334;2023-06-22T07:15:09;28.50;88.40
10270;DHT22;70826;50.930;5.334;2023-06-22T07:17:40;28.50;89.00
10270;DHT22;70826;50.930;5.334;2023-06-22T07:20:07;28.50;89.50
10270;DHT22;70826;50.930;5.334;2023-06-22T07:22:41;28.50;89.70
10270;DHT22;70826;50.930;5.334;2023-06-22T07:25:08;28.50;90.00
10270;DHT22;70826;50.930;5.334;2023-06-22T07:27:44;28.50;90.00
10270;DHT22;70826;50.930;5.334;2023-06-22T07:30:15;28.60;90.20
10270;DHT22;70826;50.930;5.334;2023-06-22T07:32:45;28.50;90.20
10270;DHT22;70826;50.930;5.334;2023-06-22T07:35:14;28.60;90.30
10270;DHT22;70826;50.930;5.334;2023-06-22T07:37:45;28.60;90.30
10270;DHT22;70826;50.930;5.334;2023-06-22T07:40:11;28.60;90.30
10270;DHT22;70826;50.930;5.334;2023-06-22T07:42:37;28.70;90.40
10270;DHT22;70826;50.930;5.334;2023-06-22T07:45:07;28.70;90.40
10270;DHT22;70826;50.930;5.334;2023-06-22T07:47:38;28.70;90.40
10270;DHT22;70826;50.930;5.334;2023-06-22T07:50:05;28.80;90.40
10270;DHT22;70826;50.930;5.334;2023-06-22T07:52:34;28.80;90.40
10270;DHT22;70826;50.930;5.334;2023-06-22T07:55:02;28.90;90.40
10270;DHT22;70826;50.930;5.334;2023-06-22T07:57:29;28.90;90.30
10270;DHT22;70826;50.930;5.334;2023-06-22T08:00:00;29.00;90.30
10270;DHT22;70826;50.930;5.334;2023-06-22T08:02:26;29.00;90.50
10270;DHT22;70826;50.930;5.334;2023-06-22T08:04:54;29.00;90.10
10270;DHT22;70826;50.930;5.334;2023-06-22T08:07:20;29.00;90.10
10270;DHT22;70826;50.930;5.334;2023-06-22T08:09:50;29.10;90.10
10270;DHT22;70826;50.930;5.334;2023-06-22T08:12:16;29.10;90.10
10270;DHT22;70826;50.930;5.334;2023-06-22T08:14:43;29.20;90.10
10270;DHT22;70826;50.930;5.334;2023-06-22T08:17:12;29.20;90.10
10270;DHT22;70826;50.930;5.334;2023-06-22T08:19:37;29.20;90.10
10270;DHT22;70826;50.930;5.334;2023-06-22T08:22:06;29.20;90.00
10270;DHT22;70826;50.930;5.334;2023-06-22T08:24:31;29.30;90.00
10270;DHT22;70826;50.930;5.334;2023-06-22T08:26:57;29.30;90.00
10270;DHT22;70826;50.930;5.334;2023-06-22T08:29:23;29.30;90.00
10270;DHT22;70826;50.930;5.334;2023-06-22T08:31:49;29.30;89.90
10270;DHT22;70826;50.930;5.334;2023-06-22T08:34:15;29.40;89.70
10270;DHT22;70826;50.930;5.334;2023-06-22T08:36:43;29.40;89.50
10270;DHT22;70826;50.930;5.334;2023-06-22T08:39:20;29.40;89.30
10270;DHT22;70826;50.930;5.334;2023-06-22T08:41:51;29.40;89.20
10270;DHT22;70826;50.930;5.334;2023-06-22T08:44:21;29.40;89.00
10270;DHT22;70826;50.930;5.334;2023-06-22T08:46:49;29.40;88.90
10270;DHT22;70826;50.930;5.334;2023-06-22T08:49:15;29.40;88.80
10270;DHT22;70826;50.930;5.334;2023-06-22T08:51:41;29.40;88.70
10270;DHT22;70826;50.930;5.334;2023-06-22T08:54:07;29.30;88.60
10270;DHT22;70826;50.930;5.334;2023-06-22T08:56:37;29.30;88.70
10270;DHT22;70826;50.930;5.334;2023-06-22T08:59:06;29.30;88.40
10270;DHT22;70826;50.930;5.334;2023-06-22T09:01:38;29.30;88.40
10270;DHT22;70826;50.930;5.334;2023-06-22T09:04:07;29.30;88.40
10270;DHT22;70826;50.930;5.334;2023-06-22T09:06:34;29.20;88.20
10270;DHT22;70826;50.930;5.334;2023-06-22T09:09:09;29.30;88.30
10270;DHT22;70826;50.930;5.334;2023-06-22T09:11:34;29.20;88.20
10270;DHT22;70826;50.930;5.334;2023-06-22T09:14:03;29.20;88.20
10270;DHT22;70826;50.930;5.334;2023-06-22T09:16:32;29.20;88.10
10270;DHT22;70826;50.930;5.334;2023-06-22T09:18:58;29.10;88.00
10270;DHT22;70826;50.930;5.334;2023-06-22T09:21:23;29.20;88.10
10270;DHT22;70826;50.930;5.334;2023-06-22T09:23:52;29.20;88.00
10270;DHT22;70826;50.930;5.334;2023-06-22T09:26:18;29.10;88.00
10270;DHT22;70826;50.930;5.334;2023-06-22T09:28:44;29.10;88.00
10270;DHT22;70826;50.930;5.334;2023-06-22T09:31:12;29.10;88.00
10270;DHT22;70826;50.930;5.334;2023-06-22T09:33:42;29.10;88.00
10270;DHT22;70826;50.930;5.334;2023-06-22T09:36:08;29.10;88.00
10270;DHT22;70826;50.930;5.334;2023-06-22T09:38:39;29.00;87.90
10270;DHT22;70826;50.930;5.334;2023-06-22T09:41:05;29.00;87.90
10270;DHT22;70826;50.930;5.334;2023-06-22T09:43:34;29.00;87.90
10270;DHT22;70826;50.930;5.334;2023-06-22T09:46:03;29.00;87.90
10270;DHT22;70826;50.930;5.334;2023-06-22T09:48:29;28.90;87.90
10270;DHT22;70826;50.930;5.334;2023-06-22T09:50:56;28.90;87.90
10270;DHT22;70826;50.930;5.334;2023-06-22T09:53:24;28.90;87.90
10270;DHT22;70826;50.930;5.334;2023-06-22T09:55:56;28.90;87.80
10270;DHT22;70826;50.930;5.334;2023-06-22T09:58:22;28.90;87.80
10270;DHT22;70826;50.930;5.334;2023-06-22T10:00:48;28.90;87.80
10270;DHT22;70826;50.930;5.334;2023-06-22T10:03:14;28.90;87.90
10270;DHT22;70826;50.930;5.334;2023-06-22T10:05:40;28.90;87.90
10270;DHT22;70826;50.930;5.334;2023-06-22T10:08:06;28.90;87.90
10270;DHT22;70826;50.930;5.334;2023-06-22T10:10:35;28.80;87.80
10270;DHT22;70826;50.930;5.334;2023-06-22T10:13:10;28.90;87.90
10270;DHT22;70826;50.930;5.334;2023-06-22T10:15:37;28.80;87.90
10270;DHT22;70826;50.930;5.334;2023-06-22T10:18:05;28.90;87.90
10270;DHT22;70826;50.930;5.334;2023-06-22T10:20:35;28.90;87.90
10270;DHT22;70826;50.930;5.334;2023-06-22T10:23:06;28.80;87.90
10270;DHT22;70826;50.930;5.334;2023-06-22T10:25:33;28.90;88.00
10270;DHT22;70826;50.930;5.334;2023-06-22T10:28:01;28.80;87.90
10270;DHT22;70826;50.930;5.334;2023-06-22T10:30:30;28.90;88.00
10270;DHT22;70826;50.930;5.334;2023-06-22T10:33:00;28.90;88.00
10270;DHT22;70826;50.930;5.334;2023-06-22T10:35:26;28.80;88.00
10270;DHT22;70826;50.930;5.334;2023-06-22T10:37:57;28.80;88.00
10270;DHT22;70826;50.930;5.334;2023-06-22T10:40:23;28.80;88.10
10270;DHT22;70826;50.930;5.334;2023-06-22T10:42:54;28.80;88.10
10270;DHT22;70826;50.930;5.334;2023-06-22T10:45:19;28.80;88.30
10270;DHT22;70826;50.930;5.334;2023-06-22T10:47:45;28.80;88.30
10270;DHT22;70826;50.930;5.334;2023-06-22T10:50:11;28.90;88.30
10270;DHT22;70826;50.930;5.334;2023-06-22T10:52:41;28.80;88.30
10270;DHT22;70826;50.930;5.334;2023-06-22T10:55:08;28.80;88.40
10270;DHT22;70826;50.930;5.334;2023-06-22T10:57:38;28.90;88.50
10270;DHT22;70826;50.930;5.334;2023-06-22T11:00:07;28.80;88.50
10270;DHT22;70826;50.930;5.334;2023-06-22T11:02:34;28.80;88.90
10270;DHT22;70826;50.930;5.334;2023-06-22T11:05:00;28.90;89.40
10270;DHT22;70826;50.930;5.334;2023-06-22T11:07:29;28.90;88.90
10270;DHT22;70826;50.930;5.334;2023-06-22T11:10:00;28.90;88.90
10270;DHT22;70826;50.930;5.334;2023-06-22T11:12:26;28.80;88.80
10270;DHT22;70826;50.930;5.334;2023-06-22T11:14:55;28.80;88.80
10270;DHT22;70826;50.930;5.334;2023-06-22T11:17:22;28.80;88.90
10270;DHT22;70826;50.930;5.334;2023-06-22T11:19:48;28.90;89.10
10270;DHT22;70826;50.930;5.334;2023-06-22T11:22:14;28.80;89.00
10270;DHT22;70826;50.930;5.334;2023-06-22T11:24:42;28.80;89.10
10270;DHT22;70826;50.930;5.334;2023-06-22T11:27:10;28.80;89.10
10270;DHT22;70826;50.930;5.334;2023-06-22T11:29:35;28.90;89.20
10270;DHT22;70826;50.930;5.334;2023-06-22T11:32:01;28.80;89.20
10270;DHT22;70826;50.930;5.334;2023-06-22T11:34:30;28.80;89.20
10270;DHT22;70826;50.930;5.334;2023-06-22T11:36:56;28.80;89.30
10270;DHT22;70826;50.930;5.334;2023-06-22T11:39:22;28.90;89.40
10270;DHT22;70826;50.930;5.334;2023-06-22T11:41:52;28.90;89.40
10270;DHT22;70826;50.930;5.334;2023-06-22T11:44:23;28.80;89.30
10270;DHT22;70826;50.930;5.334;2023-06-22T11:46:49;28.80;89.30
10270;DHT22;70826;50.930;5.334;2023-06-22T11:49:15;28.80;89.30
10270;DHT22;70826;50.930;5.334;2023-06-22T11:51:42;28.80;89.40
10270;DHT22;70826;50.930;5.334;2023-06-22T11:54:07;28.80;89.30
10270;DHT22;70826;50.930;5.334;2023-06-22T11:56:33;28.80;89.40
10270;DHT22;70826;50.930;5.334;2023-06-22T11:58:59;28.80;89.30
10270;DHT22;70826;50.930;5.334;2023-06-22T12:01:30;28.80;89.30
10270;DHT22;70826;50.930;5.334;2023-06-22T12:04:01;28.80;89.40
10270;DHT22;70826;50.930;5.334;2023-06-22T12:06:27;28.80;89.40
10270;DHT22;70826;50.930;5.334;2023-06-22T12:08:55;28.80;89.30
10270;DHT22;70826;50.930;5.334;2023-06-22T12:11:20;28.80;89.30
10270;DHT22;70826;50.930;5.334;2023-06-22T12:13:51;28.80;89.40
10270;DHT22;70826;50.930;5.334;2023-06-22T12:16:19;28.80;89.40
10270;DHT22;70826;50.930;5.334;2023-06-22T12:18:47;28.80;89.40
10270;DHT22;70826;50.930;5.334;2023-06-22T12:21:15;28.80;89.40
10270;DHT22;70826;50.930;5.334;2023-06-22T12:23:41;28.80;89.50
10270;DHT22;70826;50.930;5.334;2023-06-22T12:26:09;28.80;89.40
10270;DHT22;70826;50.930;5.334;2023-06-22T12:28:35;28.70;89.30
10270;DHT22;70826;50.930;5.334;2023-06-22T12:31:01;28.80;89.40
10270;DHT22;70826;50.930;5.334;2023-06-22T12:33:32;28.70;89.40
10270;DHT22;70826;50.930;5.334;2023-06-22T12:36:00;28.80;89.50
10270;DHT22;70826;50.930;5.334;2023-06-22T12:38:30;28.80;89.50
10270;DHT22;70826;50.930;5.334;2023-06-22T12:40:56;28.70;89.40
10270;DHT22;70826;50.930;5.334;2023-06-22T12:43:21;28.70;89.50
10270;DHT22;70826;50.930;5.334;2023-06-22T12:45:57;28.80;89.60
10270;DHT22;70826;50.930;5.334;2023-06-22T12:48:25;28.80;89.60
10270;DHT22;70826;50.930;5.334;2023-06-22T12:50:54;28.80;89.60
10270;DHT22;70826;50.930;5.334;2023-06-22T12:53:20;28.70;89.60
10270;DHT22;70826;50.930;5.334;2023-06-22T12:55:50;28.70;89.70
10270;DHT22;70826;50.930;5.334;2023-06-22T12:58:16;28.80;90.00
10270;DHT22;70826;50.930;5.334;2023-06-22T13:00:44;28.70;90.00
10270;DHT22;70826;50.930;5.334;2023-06-22T13:03:13;28.70;89.80
10270;DHT22;70826;50.930;5.334;2023-06-22T13:05:41;28.80;89.80
10270;DHT22;70826;50.930;5.334;2023-06-22T13:08:07;28.80;89.70
10270;DHT22;70826;50.930;5.334;2023-06-22T13:10:35;28.70;89.60
10270;DHT22;70826;50.930;5.334;2023-06-22T13:13:01;28.70;89.70
10270;DHT22;70826;50.930;5.334;2023-06-22T13:15:32;28.70;89.70
10270;DHT22;70826;50.930;5.334;2023-06-22T13:17:58;28.80;89.80
10270;DHT22;70826;50.930;5.334;2023-06-22T13:20:24;28.70;89.90
10270;DHT22;70826;50.930;5.334;2023-06-22T13:22:53;28.70;90.10
10270;DHT22;70826;50.930;5.334;2023-06-22T13:25:19;28.70;90.20
10270;DHT22;70826;50.930;5.334;2023-06-22T13:27:47;28.70;90.40
10270;DHT22;70826;50.930;5.334;2023-06-22T13:30:15;28.70;90.50
10270;DHT22;70826;50.930;5.334;2023-06-22T13:32:41;28.70;90.50
10270;DHT22;70826;50.930;5.334;2023-06-22T13:35:10;28.70;90.60
10270;DHT22;70826;50.930;5.334;2023-06-22T13:37:37;28.80;90.70
10270;DHT22;70826;50.930;5.334;2023-06-22T13:40:08;28.70;90.70
10270;DHT22;70826;50.930;5.334;2023-06-22T13:42:37;28.70;90.80
10270;DHT22;70826;50.930;5.334;2023-06-22T13:45:05;28.80;90.90
10270;DHT22;70826;50.930;5.334;2023-06-22T13:47:32;28.80;90.90
10270;DHT22;70826;50.930;5.334;2023-06-22T13:49:58;28.80;91.00
10270;DHT22;70826;50.930;5.334;2023-06-22T13:52:25;28.90;91.00
10270;DHT22;70826;50.930;5.334;2023-06-22T13:54:51;28.90;90.90
10270;DHT22;70826;50.930;5.334;2023-06-22T13:57:17;29.00;90.90
10270;DHT22;70826;50.930;5.334;2023-06-22T13:59:43;29.00;90.90
10270;DHT22;70826;50.930;5.334;2023-06-22T14:02:11;29.00;90.80
10270;DHT22;70826;50.930;5.334;2023-06-22T14:04:37;29.00;90.80
10270;DHT22;70826;50.930;5.334;2023-06-22T14:07:04;29.00;90.70
10270;DHT22;70826;50.930;5.334;2023-06-22T14:09:29;29.00;90.70
10270;DHT22;70826;50.930;5.334;2023-06-22T14:11:55;29.10;90.70
10270;DHT22;70826;50.930;5.334;2023-06-22T14:14:21;29.10;90.60
10270;DHT22;70826;50.930;5.334;2023-06-22T14:16:54;29.00;90.60
10270;DHT22;70826;50.930;5.334;2023-06-22T14:19:24;29.00;90.60
10270;DHT22;70826;50.930;5.334;2023-06-22T14:21:50;29.10;90.60
10270;DHT22;70826;50.930;5.334;2023-06-22T14:24:18;29.00;90.50
10270;DHT22;70826;50.930;5.334;2023-06-22T14:26:44;29.00;90.50
10270;DHT22;70826;50.930;5.334;2023-06-22T14:29:09;29.00;90.40
10270;DHT22;70826;50.930;5.334;2023-06-22T14:31:37;29.00;90.40
10270;DHT22;70826;50.930;5.334;2023-06-22T14:34:08;29.00;90.40
10270;DHT22;70826;50.930;5.334;2023-06-22T14:36:35;29.00;90.30
10270;DHT22;70826;50.930;5.334;2023-06-22T14:39:03;29.00;90.30
10270;DHT22;70826;50.930;5.334;2023-06-22T14:41:30;29.00;90.30
10270;DHT22;70826;50.930;5.334;2023-06-22T14:43:56;29.00;90.30
10270;DHT22;70826;50.930;5.334;2023-06-22T14:46:24;28.90;90.20
10270;DHT22;70826;50.930;5.334;2023-06-22T14:48:52;28.90;90.20
10270;DHT22;70826;50.930;5.334;2023-06-22T14:51:20;28.90;90.20
10270;DHT22;70826;50.930;5.334;2023-06-22T14:53:46;28.90;90.20
10270;DHT22;70826;50.930;5.334;2023-06-22T14:56:15;28.90;90.20
10270;DHT22;70826;50.930;5.334;2023-06-22T14:58:43;28.90;90.20
10270;DHT22;70826;50.930;5.334;2023-06-22T15:01:13;28.80;90.10
10270;DHT22;70826;50.930;5.334;2023-06-22T15:03:41;28.90;90.20
10270;DHT22;70826;50.930;5.334;2023-06-22T15:06:08;28.90;90.20
10270;DHT22;70826;50.930;5.334;2023-06-22T15:08:41;28.80;90.10
10270;DHT22;70826;50.930;5.334;2023-06-22T15:11:07;28.80;90.10
10270;DHT22;70826;50.930;5.334;2023-06-22T15:13:39;28.90;90.10
10270;DHT22;70826;50.930;5.334;2023-06-22T15:16:07;28.90;90.10
10270;DHT22;70826;50.930;5.334;2023-06-22T15:18:34;28.80;90.10
10270;DHT22;70826;50.930;5.334;2023-06-22T15:21:01;28.80;90.10
10270;DHT22;70826;50.930;5.334;2023-06-22T15:23:28;28.90;90.10
10270;DHT22;70826;50.930;5.334;2023-06-22T15:25:55;28.80;90.10
10270;DHT22;70826;50.930;5.334;2023-06-22T15:28:20;28.80;90.10
10270;DHT22;70826;50.930;5.334;2023-06-22T15:30:52;28.80;90.10
10270;DHT22;70826;50.930;5.334;2023-06-22T15:33:20;28.80;90.10
10270;DHT22;70826;50.930;5.334;2023-06-22T15:35:48;28.80;90.10
10270;DHT22;70826;50.930;5.334;2023-06-22T15:38:14;28.80;90.10
10270;DHT22;70826;50.930;5.334;2023-06-22T15:40:45;28.80;90.10